createdAt,value
2023-09-12T00:01:44.187Z,15.48
2023-09-12T00:04:12.644Z,15.48
2023-09-12T00:06:40.559Z,15.47
2023-09-12T00:09:08.473Z,15.47
2023-09-12T00:11:36.198Z,15.47
2023-09-12T00:14:04.036Z,15.46
2023-09-12T00:16:31.920Z,15.47
2023-09-12T00:18:59.815Z,15.46
2023-09-12T00:21:27.517Z,15.46
2023-09-12T00:23:55.323Z,15.45
2023-09-12T00:26:22.964Z,15.45
2023-09-12T00:28:51.433Z,15.44
2023-09-12T00:31:19.348Z,15.43
2023-09-12T00:33:47.095Z,15.41
2023-09-12T00:36:14.809Z,15.38
2023-09-12T00:38:42.834Z,15.36
2023-09-12T00:41:10.708Z,15.34
2023-09-12T00:43:38.383Z,15.32
2023-09-12T00:46:06.204Z,15.30
2023-09-12T00:48:34.806Z,15.28
2023-09-12T00:51:03.022Z,15.26
2023-09-12T00:53:30.736Z,15.24
2023-09-12T00:56:00.192Z,15.22
2023-09-12T00:58:28.196Z,15.20
2023-09-12T01:00:57.537Z,15.19
2023-09-12T01:03:26.011Z,15.17
2023-09-12T01:05:53.765Z,15.15
2023-09-12T01:08:21.498Z,15.13
2023-09-12T01:10:51.611Z,15.11
2023-09-12T01:13:19.644Z,15.10
2023-09-12T01:15:47.358Z,15.08
2023-09-12T01:18:15.511Z,15.06
2023-09-12T01:21:05.492Z,15.03
2023-09-12T01:23:39.179Z,15.00
2023-09-12T01:26:42.410Z,14.97
2023-09-12T01:29:14.228Z,14.95
2023-09-12T01:31:44.061Z,14.93
2023-09-12T01:34:13.288Z,14.92
2023-09-12T01:36:41.211Z,14.91
2023-09-12T01:39:09.688Z,14.90
2023-09-12T01:41:44.582Z,14.88
2023-09-12T01:44:13.072Z,14.87
2023-09-12T01:46:41.632Z,14.85
2023-09-12T01:49:11.295Z,14.80
2023-09-12T01:51:39.405Z,14.77
2023-09-12T01:54:08.116Z,14.76
2023-09-12T01:56:36.431Z,14.74
2023-09-12T01:59:04.545Z,14.71
2023-09-12T02:01:32.345Z,14.69
2023-09-12T02:04:00.540Z,14.67
2023-09-12T02:06:29.426Z,14.65
2023-09-12T02:08:57.092Z,14.63
2023-09-12T02:11:24.751Z,14.61
2023-09-12T02:13:52.539Z,14.60
2023-09-12T02:16:20.265Z,14.58
2023-09-12T02:18:47.978Z,14.56
2023-09-12T02:21:19.597Z,14.54
2023-09-12T02:23:47.524Z,14.52
2023-09-12T02:26:15.428Z,14.51
2023-09-12T02:28:43.425Z,14.50
2023-09-12T02:31:12.974Z,14.49
2023-09-12T02:33:41.254Z,14.47
2023-09-12T02:36:09.258Z,14.47
2023-09-12T02:38:37.051Z,14.45
2023-09-12T02:41:05.148Z,14.42
2023-09-12T02:43:33.491Z,14.41
2023-09-12T02:46:01.294Z,14.39
2023-09-12T02:48:29.289Z,14.38
2023-09-12T02:50:57.074Z,14.36
2023-09-12T02:53:24.915Z,14.35
2023-09-12T02:55:52.928Z,14.33
2023-09-12T02:58:20.571Z,14.31
2023-09-12T03:00:51.332Z,14.29
2023-09-12T03:03:19.312Z,14.26
2023-09-12T03:05:47.230Z,14.24
2023-09-12T03:08:15.086Z,14.22
2023-09-12T03:10:42.961Z,14.20
2023-09-12T03:13:13.370Z,14.17
2023-09-12T03:15:41.182Z,14.15
2023-09-12T03:18:11.083Z,14.13
2023-09-12T03:20:40.351Z,14.10
2023-09-12T03:23:08.168Z,14.09
2023-09-12T03:25:40.037Z,14.07
2023-09-12T03:28:08.584Z,14.06
2023-09-12T03:30:38.606Z,14.05
2023-09-12T03:33:07.044Z,14.04
2023-09-12T03:35:35.605Z,14.03
2023-09-12T03:38:03.710Z,14.02
2023-09-12T03:40:31.887Z,14.01
2023-09-12T03:42:59.871Z,14.00
2023-09-12T03:45:27.738Z,14.00
2023-09-12T03:47:55.592Z,13.99
2023-09-12T03:50:23.552Z,13.97
2023-09-12T03:52:51.222Z,13.95
2023-09-12T03:55:18.972Z,13.94
2023-09-12T03:57:46.650Z,13.93
2023-09-12T04:00:16.708Z,13.91
2023-09-12T04:02:48.315Z,13.90
2023-09-12T04:05:16.625Z,13.90
2023-09-12T04:07:44.412Z,13.91
2023-09-12T04:10:12.072Z,13.92
2023-09-12T04:12:40.132Z,13.92
2023-09-12T04:15:08.148Z,13.92
2023-09-12T04:17:36.417Z,13.93
2023-09-12T04:20:08.050Z,13.93
2023-09-12T04:22:36.005Z,13.93
2023-09-12T04:25:04.183Z,13.93
2023-09-12T04:27:31.947Z,13.93
2023-09-12T04:29:59.854Z,13.94
2023-09-12T04:32:27.509Z,13.94
2023-09-12T04:34:55.639Z,13.95
2023-09-12T04:37:23.443Z,13.97
2023-09-12T04:39:51.122Z,13.99
2023-09-12T04:42:19.069Z,14.02
2023-09-12T04:44:47.104Z,14.05
2023-09-12T04:47:15.172Z,14.09
2023-09-12T04:49:44.924Z,14.13
2023-09-12T04:52:12.700Z,14.17
2023-09-12T04:54:40.691Z,14.23
2023-09-12T04:57:08.972Z,14.29
2023-09-12T04:59:37.159Z,14.34
2023-09-12T05:02:04.885Z,14.41
2023-09-12T05:04:33.157Z,14.49
2023-09-12T05:07:01.014Z,14.56
2023-09-12T05:09:28.968Z,14.64
2023-09-12T05:11:56.901Z,14.73
2023-09-12T05:14:24.678Z,14.81
2023-09-12T05:16:52.449Z,14.90
2023-09-12T05:19:20.374Z,14.99
2023-09-12T05:21:48.117Z,15.09
2023-09-12T05:24:16.197Z,15.19
2023-09-12T05:26:44.549Z,15.30
2023-09-12T05:29:12.587Z,15.41
2023-09-12T05:31:40.627Z,15.53
2023-09-12T05:34:08.543Z,15.65
2023-09-12T05:36:36.555Z,15.79
2023-09-12T05:39:04.792Z,15.93
2023-09-12T05:41:32.531Z,16.07
2023-09-12T05:44:00.995Z,16.22
2023-09-12T05:46:28.967Z,16.39
2023-09-12T05:48:56.973Z,16.58
2023-09-12T05:51:24.737Z,16.77
2023-09-12T05:53:52.477Z,16.96
2023-09-12T05:56:21.520Z,17.13
2023-09-12T05:58:51.314Z,17.30
2023-09-12T06:01:19.164Z,17.48
2023-09-12T06:03:47.762Z,17.66
2023-09-12T06:06:16.073Z,17.85
2023-09-12T06:08:44.230Z,18.04
2023-09-12T06:11:12.086Z,18.23
2023-09-12T06:13:39.824Z,18.44
2023-09-12T06:16:08.960Z,18.64
2023-09-12T06:18:36.899Z,18.86
2023-09-12T06:21:05.641Z,19.07
2023-09-12T06:23:33.419Z,19.29
2023-09-12T06:26:01.152Z,19.51
2023-09-12T06:28:31.290Z,19.73
2023-09-12T06:30:59.799Z,19.95
2023-09-12T06:33:28.135Z,20.19
2023-09-12T06:35:55.810Z,20.42
2023-09-12T06:38:24.407Z,20.65
2023-09-12T06:40:52.694Z,20.89
2023-09-12T06:43:20.668Z,21.12
2023-09-12T06:45:49.332Z,21.35
2023-09-12T06:48:17.865Z,21.57
2023-09-12T06:50:50.313Z,21.79
2023-09-12T06:53:19.441Z,22.03
2023-09-12T06:55:47.181Z,22.27
2023-09-12T06:58:14.891Z,22.50
2023-09-12T07:00:42.772Z,22.75
2023-09-12T07:03:13.479Z,23.00
2023-09-12T07:05:42.940Z,23.24
2023-09-12T07:08:11.381Z,23.47
2023-09-12T07:10:44.314Z,23.72
2023-09-12T07:13:12.060Z,23.97
2023-09-12T07:15:40.143Z,24.21
2023-09-12T07:18:07.978Z,24.46
2023-09-12T07:20:35.706Z,24.70
2023-09-12T07:23:03.531Z,24.91
2023-09-12T07:25:31.430Z,25.15
2023-09-12T07:27:59.188Z,25.39
2023-09-12T07:30:27.014Z,25.62
2023-09-12T07:32:54.860Z,25.87
2023-09-12T07:35:25.021Z,26.08
2023-09-12T07:37:52.846Z,26.30
2023-09-12T07:40:20.549Z,26.49
2023-09-12T07:42:48.412Z,26.68
2023-09-12T07:45:16.224Z,26.86
2023-09-12T07:47:43.967Z,27.02
2023-09-12T07:50:11.751Z,27.18
2023-09-12T07:52:39.637Z,27.33
2023-09-12T07:55:08.777Z,27.47
2023-09-12T07:57:37.724Z,27.58
2023-09-12T08:00:11.757Z,27.68
2023-09-12T08:02:40.013Z,27.78
2023-09-12T08:05:09.263Z,27.89
2023-09-12T08:07:37.771Z,28.06
2023-09-12T08:10:05.985Z,28.25
2023-09-12T08:12:33.780Z,28.45
2023-09-12T08:15:01.695Z,28.62
2023-09-12T08:17:29.535Z,28.76
2023-09-12T08:19:57.847Z,28.91
2023-09-12T08:22:25.559Z,29.09
2023-09-12T08:24:53.356Z,29.32
2023-09-12T08:27:22.898Z,29.56
2023-09-12T08:29:51.336Z,29.82
2023-09-12T08:32:19.128Z,30.08
2023-09-12T08:34:46.826Z,30.32
2023-09-12T08:37:14.525Z,30.60
2023-09-12T08:39:46.447Z,30.89
2023-09-12T08:42:16.936Z,31.18
2023-09-12T08:44:44.836Z,31.46
2023-09-12T08:47:14.112Z,31.73
2023-09-12T08:49:45.200Z,32.00
2023-09-12T08:52:13.153Z,32.25
2023-09-12T08:54:41.430Z,32.48
2023-09-12T08:57:11.872Z,32.65
2023-09-12T08:59:41.729Z,32.81
2023-09-12T09:02:11.184Z,32.97
2023-09-12T09:04:41.858Z,33.10
2023-09-12T09:07:11.843Z,33.24
2023-09-12T09:09:39.990Z,33.47
2023-09-12T09:12:09.877Z,33.68
2023-09-12T09:14:37.690Z,33.71
2023-09-12T09:17:05.421Z,33.66
2023-09-12T09:19:43.001Z,33.69
2023-09-12T09:22:10.757Z,33.82
2023-09-12T09:24:38.693Z,33.92
2023-09-12T09:27:06.409Z,34.05
2023-09-12T09:29:47.193Z,34.19
2023-09-12T09:32:20.060Z,34.35
2023-09-12T09:34:48.014Z,34.41
2023-09-12T09:37:16.768Z,34.54
2023-09-12T09:39:45.158Z,34.73
2023-09-12T09:42:13.107Z,34.91
2023-09-12T09:44:40.858Z,35.00
2023-09-12T09:47:09.019Z,35.16
2023-09-12T09:49:36.769Z,35.37
2023-09-12T09:52:06.024Z,35.45
2023-09-12T09:54:34.302Z,35.48
2023-09-12T09:57:01.993Z,35.57
2023-09-12T09:59:29.885Z,35.71
2023-09-12T10:01:59.387Z,35.81
2023-09-12T10:04:29.795Z,35.97
2023-09-12T10:06:59.629Z,36.21
2023-09-12T10:09:29.695Z,36.40
2023-09-12T10:11:58.990Z,36.46
2023-09-12T10:14:28.339Z,36.36
2023-09-12T10:17:07.361Z,36.13
2023-09-12T10:19:44.204Z,36.06
2023-09-12T10:22:40.644Z,36.13
2023-09-12T10:25:09.387Z,36.24
2023-09-12T10:27:37.203Z,36.37
2023-09-12T10:30:06.207Z,36.50
2023-09-12T10:32:34.814Z,36.54
2023-09-12T10:35:04.203Z,36.25
2023-09-12T10:37:34.107Z,35.74
2023-09-12T10:40:04.654Z,35.24
2023-09-12T10:42:34.053Z,34.83
2023-09-12T10:45:04.710Z,34.55
2023-09-12T10:47:32.893Z,34.25
2023-09-12T10:50:00.712Z,33.87
2023-09-12T10:52:29.453Z,33.42
2023-09-12T10:54:57.722Z,33.20
2023-09-12T10:57:25.764Z,33.24
2023-09-12T11:00:05.437Z,33.23
2023-09-12T11:02:34.196Z,33.30
2023-09-12T11:05:05.943Z,33.57
2023-09-12T11:07:34.813Z,33.73
2023-09-12T11:10:16.220Z,33.76
2023-09-12T11:12:44.976Z,33.68
2023-09-12T11:15:13.068Z,33.66
2023-09-12T11:17:41.155Z,33.54
2023-09-12T11:20:13.197Z,33.41
2023-09-12T11:22:43.391Z,33.26
2023-09-12T11:25:19.298Z,33.16
2023-09-12T11:28:05.323Z,33.05
2023-09-12T11:30:33.417Z,33.02
2023-09-12T11:33:05.587Z,33.20
2023-09-12T11:35:38.440Z,33.52
2023-09-12T11:38:11.461Z,33.74
2023-09-12T11:40:39.139Z,33.77
2023-09-12T11:43:07.425Z,33.86
2023-09-12T11:45:36.076Z,34.09
2023-09-12T11:48:04.340Z,34.36
2023-09-12T11:50:34.466Z,34.62
2023-09-12T11:53:08.158Z,34.93
2023-09-12T11:55:39.358Z,35.17
2023-09-12T11:58:07.178Z,35.29
2023-09-12T12:00:35.301Z,35.41
2023-09-12T12:03:03.980Z,35.55
2023-09-12T12:05:33.436Z,35.67
2023-09-12T12:08:21.716Z,35.70
2023-09-12T12:10:52.729Z,35.69
2023-09-12T12:13:22.042Z,35.66
2023-09-12T12:15:50.140Z,35.57
2023-09-12T12:18:18.007Z,35.38
2023-09-12T12:20:45.868Z,35.11
2023-09-12T12:23:13.742Z,34.79
2023-09-12T12:25:41.527Z,34.40
2023-09-12T12:28:12.724Z,34.06
2023-09-12T12:30:40.846Z,33.87
2023-09-12T12:34:04.302Z,33.67
2023-09-12T12:36:06.194Z,33.40
2023-09-12T12:38:49.327Z,33.20
2023-09-12T12:41:36.869Z,33.03
2023-09-12T12:44:07.920Z,32.91
2023-09-12T12:46:48.719Z,32.80
2023-09-12T12:49:17.333Z,32.66
2023-09-12T12:51:46.166Z,32.55
2023-09-12T12:54:14.944Z,32.46
2023-09-12T12:56:44.266Z,32.34
2023-09-12T12:59:12.027Z,32.14
2023-09-12T13:01:40.332Z,31.98
2023-09-12T13:04:09.687Z,31.84
2023-09-12T13:06:38.205Z,31.73
2023-09-12T13:09:07.465Z,31.67
2023-09-12T13:11:38.544Z,31.67
2023-09-12T13:14:13.083Z,31.68
2023-09-12T13:16:42.437Z,31.65
2023-09-12T13:19:12.492Z,31.60
2023-09-12T13:21:40.558Z,31.53
2023-09-12T13:24:08.516Z,31.48
2023-09-12T13:26:36.375Z,31.43
2023-09-12T13:29:04.090Z,31.32
2023-09-12T13:31:32.950Z,31.22
2023-09-12T13:34:00.942Z,31.17
2023-09-12T13:36:28.741Z,31.14
2023-09-12T13:38:57.031Z,31.06
2023-09-12T13:41:26.502Z,30.92
2023-09-12T13:43:54.411Z,30.76
2023-09-12T13:46:22.261Z,30.63
2023-09-12T13:48:50.293Z,30.51
2023-09-12T13:51:18.133Z,30.38
2023-09-12T13:53:46.166Z,30.30
2023-09-12T13:56:23.533Z,30.35
2023-09-12T13:58:51.459Z,30.49
2023-09-12T14:01:32.151Z,30.61
2023-09-12T14:04:03.944Z,30.75
2023-09-12T14:06:34.724Z,30.82
2023-09-12T14:09:03.220Z,30.89
2023-09-12T14:11:35.823Z,30.91
2023-09-12T14:16:36.296Z,30.97
2023-09-12T14:19:04.584Z,30.99
2023-09-12T14:21:32.706Z,31.01
2023-09-12T14:24:01.623Z,31.04
2023-09-12T14:26:30.349Z,31.06
2023-09-12T14:28:58.262Z,31.06
2023-09-12T14:31:26.641Z,31.05
2023-09-12T14:33:54.531Z,31.02
2023-09-12T14:36:22.251Z,30.97
2023-09-12T14:38:50.009Z,30.90
2023-09-12T14:41:17.665Z,30.81
2023-09-12T14:43:45.539Z,30.74
2023-09-12T14:46:13.646Z,30.68
2023-09-12T14:48:44.610Z,30.63
2023-09-12T14:51:27.838Z,30.57
2023-09-12T14:53:58.996Z,30.51
2023-09-12T14:56:26.777Z,30.46
2023-09-12T14:58:54.545Z,30.37
2023-09-12T15:01:22.609Z,30.28
2023-09-12T15:03:50.467Z,30.22
2023-09-12T15:06:19.923Z,30.15
2023-09-12T15:08:52.887Z,30.07
2023-09-12T15:11:20.773Z,30.00
2023-09-12T15:13:48.909Z,29.91
2023-09-12T15:24:28.324Z,29.53
2023-09-12T15:26:56.136Z,29.43
2023-09-12T15:29:23.878Z,29.31
2023-09-12T15:31:51.820Z,29.21
2023-09-12T15:34:19.598Z,29.10
2023-09-12T15:36:48.577Z,29.00
2023-09-12T15:39:16.502Z,28.90
2023-09-12T15:41:44.242Z,28.79
2023-09-12T15:44:15.987Z,28.70
2023-09-12T15:46:44.515Z,28.60
2023-09-12T15:49:12.404Z,28.51
2023-09-12T15:51:40.264Z,28.43
2023-09-12T15:54:08.046Z,28.34
2023-09-12T15:56:36.357Z,28.28
2023-09-12T15:59:04.376Z,28.21
2023-09-12T16:01:32.318Z,28.13
2023-09-12T16:04:00.211Z,28.05
2023-09-12T16:06:29.399Z,27.98
2023-09-12T16:08:57.085Z,27.90
2023-09-12T16:11:25.085Z,27.82
2023-09-12T16:13:52.763Z,27.72
2023-09-12T16:16:21.893Z,27.63
2023-09-12T16:18:49.882Z,27.53
2023-09-12T16:21:17.773Z,27.42
2023-09-12T16:23:45.577Z,27.31
2023-09-12T16:26:13.274Z,27.18
2023-09-12T16:28:41.028Z,27.04
2023-09-12T16:31:08.760Z,26.91
2023-09-12T16:33:36.762Z,26.78
2023-09-12T16:36:04.823Z,26.64
2023-09-12T16:38:34.316Z,26.49
2023-09-12T16:41:02.393Z,26.34
2023-09-12T16:43:30.212Z,26.20
2023-09-12T16:45:58.292Z,26.05
2023-09-12T16:48:26.150Z,25.90
2023-09-12T16:50:53.885Z,25.75
2023-09-12T16:53:21.747Z,25.58
2023-09-12T16:55:49.662Z,25.43
2023-09-12T16:58:17.446Z,25.27
2023-09-12T17:00:45.316Z,25.09
2023-09-12T17:03:13.124Z,24.90
2023-09-12T17:05:40.941Z,24.69
2023-09-12T17:08:08.725Z,24.51
2023-09-12T17:10:36.621Z,24.31
2023-09-12T17:13:04.632Z,24.14
2023-09-12T17:15:34.899Z,23.96
2023-09-12T17:18:02.916Z,23.80
2023-09-12T17:20:30.659Z,23.65
2023-09-12T17:22:58.372Z,23.50
2023-09-12T17:25:26.076Z,23.35
2023-09-12T17:27:53.873Z,23.21
2023-09-12T17:30:23.531Z,23.07
2023-09-12T17:32:52.620Z,22.94
2023-09-12T17:35:22.017Z,22.81
2023-09-12T17:37:49.795Z,22.68
2023-09-12T17:40:17.517Z,22.55
2023-09-12T17:42:45.419Z,22.41
2023-09-12T17:45:13.342Z,22.27
2023-09-12T17:47:41.169Z,22.14
2023-09-12T17:50:10.152Z,22.02
2023-09-12T17:52:38.941Z,21.91
2023-09-12T17:55:09.089Z,21.81
2023-09-12T17:57:37.187Z,21.70
2023-09-12T18:00:06.088Z,21.59
2023-09-12T18:02:40.417Z,21.48
2023-09-12T18:05:10.219Z,21.39
2023-09-12T18:07:37.962Z,21.28
2023-09-12T18:10:06.846Z,21.19
2023-09-12T18:12:35.075Z,21.09
2023-09-12T18:15:02.973Z,21.00
2023-09-12T18:17:30.698Z,20.92
2023-09-12T18:19:58.459Z,20.83
2023-09-12T18:22:26.130Z,20.73
2023-09-12T18:24:53.868Z,20.62
2023-09-12T18:27:21.543Z,20.49
2023-09-12T18:29:49.390Z,20.38
2023-09-12T18:32:18.121Z,20.29
2023-09-12T18:34:45.924Z,20.20
2023-09-12T18:37:14.732Z,20.11
2023-09-12T18:39:43.106Z,20.02
2023-09-12T18:42:12.068Z,19.95
2023-09-12T18:44:39.860Z,19.88
2023-09-12T18:47:07.798Z,19.82
2023-09-12T18:49:35.531Z,19.76
2023-09-12T18:52:03.310Z,19.70
2023-09-12T18:54:32.720Z,19.63
2023-09-12T18:57:05.401Z,19.57
2023-09-12T18:59:33.120Z,19.50
2023-09-12T19:02:00.886Z,19.44
2023-09-12T19:04:34.782Z,19.38
2023-09-12T19:07:02.751Z,19.31
2023-09-12T19:09:30.611Z,19.25
2023-09-12T19:11:58.754Z,19.20
2023-09-12T19:14:27.016Z,19.15
2023-09-12T19:16:56.207Z,19.10
2023-09-12T19:19:24.152Z,19.04
2023-09-12T19:21:57.667Z,18.99
2023-09-12T19:24:25.886Z,18.93
2023-09-12T19:26:53.742Z,18.88
2023-09-12T19:29:21.481Z,18.82
2023-09-12T19:31:49.295Z,18.77
2023-09-12T19:34:17.903Z,18.71
2023-09-12T19:36:45.619Z,18.65
2023-09-12T19:39:14.335Z,18.58
2023-09-12T19:41:42.119Z,18.51
2023-09-12T19:44:09.808Z,18.45
2023-09-12T19:46:41.106Z,18.40
2023-09-12T19:49:09.333Z,18.34
2023-09-12T19:51:37.333Z,18.29
2023-09-12T19:54:05.162Z,18.24
2023-09-12T19:56:32.861Z,18.19
2023-09-12T19:59:00.552Z,18.13
2023-09-12T20:01:28.441Z,18.09
2023-09-12T20:03:56.802Z,18.03
2023-09-12T20:06:24.659Z,17.98
2023-09-12T20:08:52.494Z,17.94
2023-09-12T20:11:21.110Z,17.90
2023-09-12T20:13:48.805Z,17.85
2023-09-12T20:16:18.000Z,17.80
2023-09-12T20:18:46.056Z,17.75
2023-09-12T20:21:14.085Z,17.71
2023-09-12T20:23:42.081Z,17.66
2023-09-12T20:26:10.594Z,17.61
2023-09-12T20:28:38.284Z,17.57
2023-09-12T20:31:06.657Z,17.53
2023-09-12T20:33:34.819Z,17.50
2023-09-12T20:36:02.733Z,17.46
2023-09-12T20:38:30.469Z,17.42
2023-09-12T20:40:58.175Z,17.37
2023-09-12T20:43:26.756Z,17.33
2023-09-12T20:45:55.288Z,17.30
2023-09-12T20:48:23.354Z,17.27
2023-09-12T20:50:51.070Z,17.24
2023-09-12T20:53:19.200Z,17.21
2023-09-12T20:55:46.872Z,17.18
2023-09-12T20:58:14.727Z,17.15
2023-09-12T21:00:44.565Z,17.12
2023-09-12T21:03:13.081Z,17.08
2023-09-12T21:05:44.503Z,17.03
2023-09-12T21:08:12.274Z,16.99
2023-09-12T21:10:40.254Z,16.96
2023-09-12T21:13:08.040Z,16.93
2023-09-12T21:15:35.811Z,16.89
2023-09-12T21:18:03.808Z,16.87
2023-09-12T21:20:31.547Z,16.83
2023-09-12T21:23:00.558Z,16.80
2023-09-12T21:25:28.442Z,16.78
2023-09-12T21:27:56.248Z,16.75
2023-09-12T21:30:24.024Z,16.71
2023-09-12T21:32:53.387Z,16.68
2023-09-12T21:35:21.087Z,16.66
2023-09-12T21:37:48.834Z,16.62
2023-09-12T21:40:17.322Z,16.60
2023-09-12T21:42:45.379Z,16.57
2023-09-12T21:45:15.681Z,16.55
2023-09-12T21:47:44.684Z,16.52
2023-09-12T21:50:12.667Z,16.49
2023-09-12T21:52:41.522Z,16.47
2023-09-12T21:55:09.927Z,16.44
2023-09-12T21:57:38.061Z,16.41
2023-09-12T22:00:26.780Z,16.40
2023-09-12T22:02:59.322Z,16.37
2023-09-12T22:05:27.404Z,16.34
2023-09-12T22:07:55.102Z,16.31
2023-09-12T22:10:23.001Z,16.29
2023-09-12T22:12:50.796Z,16.26
2023-09-12T22:15:19.665Z,16.24
2023-09-12T22:17:47.927Z,16.21
2023-09-12T22:20:18.847Z,16.19
2023-09-12T22:22:47.280Z,16.17
2023-09-12T22:25:16.320Z,16.15
2023-09-12T22:27:44.698Z,16.13
2023-09-12T22:30:12.775Z,16.12
2023-09-12T22:32:40.706Z,16.10
2023-09-12T22:35:08.840Z,16.07
2023-09-12T22:37:36.574Z,16.04
2023-09-12T22:40:06.720Z,16.02
2023-09-12T22:42:34.552Z,15.99
2023-09-12T22:45:03.023Z,15.97
2023-09-12T22:47:30.933Z,15.94
2023-09-12T22:50:02.091Z,15.92
2023-09-12T22:52:29.753Z,15.90
2023-09-12T22:54:57.469Z,15.87
2023-09-12T22:57:25.170Z,15.86
2023-09-12T22:59:52.888Z,15.84
2023-09-12T23:02:20.560Z,15.82
2023-09-12T23:04:48.529Z,15.80
2023-09-12T23:07:16.652Z,15.77
2023-09-12T23:09:44.465Z,15.76
2023-09-12T23:12:12.273Z,15.73
2023-09-12T23:14:40.067Z,15.71
2023-09-12T23:17:07.838Z,15.69
2023-09-12T23:19:35.599Z,15.66
2023-09-12T23:22:03.463Z,15.64
2023-09-12T23:24:31.839Z,15.62
2023-09-12T23:26:59.612Z,15.58
2023-09-12T23:29:27.263Z,15.56
2023-09-12T23:31:54.966Z,15.53
2023-09-12T23:34:22.840Z,15.52
2023-09-12T23:36:50.922Z,15.49
2023-09-12T23:39:18.611Z,15.47
2023-09-12T23:41:46.290Z,15.46
2023-09-12T23:44:14.223Z,15.44
2023-09-12T23:46:42.121Z,15.42
2023-09-12T23:49:09.859Z,15.41
2023-09-12T23:51:38.990Z,15.39
2023-09-12T23:54:09.046Z,15.37
2023-09-12T23:56:37.198Z,15.35
2023-09-12T23:59:04.985Z,15.33
